sensor_id;sensor_type;location;lat;lon;timestamp;P1;durP1;ratioP1;P2;durP2;ratioP2
47772;SDS011;33534;51.028;13.716;2022-11-09T00:00:40;20.52;;;15.35;;
47772;SDS011;33534;51.028;13.716;2022-11-09T00:03:13;25.17;;;17.15;;
47772;SDS011;33534;51.028;13.716;2022-11-09T00:05:40;26.40;;;16.52;;
47772;SDS011;33534;51.028;13.716;2022-11-09T00:08:06;25.63;;;17.23;;
47772;SDS011;33534;51.028;13.716;2022-11-09T00:10:32;24.10;;;17.48;;
47772;SDS011;33534;51.028;13.716;2022-11-09T00:12:59;22.83;;;16.88;;
47772;SDS011;33534;51.028;13.716;2022-11-09T00:15:25;24.25;;;16.83;;
47772;SDS011;33534;51.028;13.716;2022-11-09T00:17:51;26.63;;;18.25;;
47772;SDS011;33534;51.028;13.716;2022-11-09T00:20:17;23.00;;;17.02;;
47772;SDS011;33534;51.028;13.716;2022-11-09T00:22:46;25.15;;;17.88;;
47772;SDS011;33534;51.028;13.716;2022-11-09T00:25:13;25.63;;;17.77;;
47772;SDS011;33534;51.028;13.716;2022-11-09T00:27:39;24.95;;;17.55;;
47772;SDS011;33534;51.028;13.716;2022-11-09T00:30:07;29.48;;;18.38;;
47772;SDS011;33534;51.028;13.716;2022-11-09T00:32:39;26.42;;;17.80;;
47772;SDS011;33534;51.028;13.716;2022-11-09T00:35:05;27.67;;;18.20;;
47772;SDS011;33534;51.028;13.716;2022-11-09T00:37:32;25.85;;;17.70;;
47772;SDS011;33534;51.028;13.716;2022-11-09T00:39:58;26.48;;;17.13;;
47772;SDS011;33534;51.028;13.716;2022-11-09T00:42:24;25.95;;;19.10;;
47772;SDS011;33534;51.028;13.716;2022-11-09T00:44:50;26.70;;;19.10;;
47772;SDS011;33534;51.028;13.716;2022-11-09T00:47:16;26.70;;;18.60;;
47772;SDS011;33534;51.028;13.716;2022-11-09T00:49:42;26.95;;;19.33;;
47772;SDS011;33534;51.028;13.716;2022-11-09T00:52:08;30.23;;;18.73;;
47772;SDS011;33534;51.028;13.716;2022-11-09T00:54:34;28.15;;;18.33;;
47772;SDS011;33534;51.028;13.716;2022-11-09T00:57:00;32.08;;;19.73;;
47772;SDS011;33534;51.028;13.716;2022-11-09T00:59:26;26.98;;;18.83;;
47772;SDS011;33534;51.028;13.716;2022-11-09T01:01:55;29.13;;;19.35;;
47772;SDS011;33534;51.028;13.716;2022-11-09T01:04:21;32.67;;;21.30;;
47772;SDS011;33534;51.028;13.716;2022-11-09T01:06:47;28.75;;;19.70;;
47772;SDS011;33534;51.028;13.716;2022-11-09T01:09:13;31.20;;;20.98;;
47772;SDS011;33534;51.028;13.716;2022-11-09T01:11:41;27.77;;;18.98;;
47772;SDS011;33534;51.028;13.716;2022-11-09T01:14:10;32.38;;;21.63;;
47772;SDS011;33534;51.028;13.716;2022-11-09T01:16:36;29.13;;;19.92;;
47772;SDS011;33534;51.028;13.716;2022-11-09T01:19:02;30.10;;;19.35;;
47772;SDS011;33534;51.028;13.716;2022-11-09T01:21:28;33.20;;;20.38;;
47772;SDS011;33534;51.028;13.716;2022-11-09T01:23:54;28.90;;;19.92;;
47772;SDS011;33534;51.028;13.716;2022-11-09T01:26:22;28.85;;;20.45;;
47772;SDS011;33534;51.028;13.716;2022-11-09T01:28:48;30.88;;;20.77;;
47772;SDS011;33534;51.028;13.716;2022-11-09T01:31:15;33.20;;;21.30;;
47772;SDS011;33534;51.028;13.716;2022-11-09T01:33:41;32.03;;;20.27;;
47772;SDS011;33534;51.028;13.716;2022-11-09T01:36:09;34.40;;;19.55;;
47772;SDS011;33534;51.028;13.716;2022-11-09T01:38:36;30.15;;;20.02;;
47772;SDS011;33534;51.028;13.716;2022-11-09T01:41:02;29.10;;;19.48;;
47772;SDS011;33534;51.028;13.716;2022-11-09T01:43:29;30.05;;;20.48;;
47772;SDS011;33534;51.028;13.716;2022-11-09T01:46:00;30.55;;;20.33;;
47772;SDS011;33534;51.028;13.716;2022-11-09T01:51:04;30.15;;;20.58;;
47772;SDS011;33534;51.028;13.716;2022-11-09T01:53:32;30.83;;;20.48;;
47772;SDS011;33534;51.028;13.716;2022-11-09T01:56:01;31.75;;;20.63;;
47772;SDS011;33534;51.028;13.716;2022-11-09T01:58:29;30.70;;;19.52;;
47772;SDS011;33534;51.028;13.716;2022-11-09T02:00:55;30.15;;;21.45;;
47772;SDS011;33534;51.028;13.716;2022-11-09T02:03:23;31.42;;;20.00;;
47772;SDS011;33534;51.028;13.716;2022-11-09T02:05:51;31.05;;;21.08;;
47772;SDS011;33534;51.028;13.716;2022-11-09T02:08:17;33.47;;;21.50;;
47772;SDS011;33534;51.028;13.716;2022-11-09T02:10:51;34.97;;;23.10;;
47772;SDS011;33534;51.028;13.716;2022-11-09T02:13:24;34.83;;;22.40;;
47772;SDS011;33534;51.028;13.716;2022-11-09T02:15:51;30.42;;;21.48;;
47772;SDS011;33534;51.028;13.716;2022-11-09T02:18:17;30.38;;;20.83;;
47772;SDS011;33534;51.028;13.716;2022-11-09T02:23:15;29.63;;;20.83;;
47772;SDS011;33534;51.028;13.716;2022-11-09T02:25:48;30.20;;;19.42;;
47772;SDS011;33534;51.028;13.716;2022-11-09T02:31:13;29.92;;;19.20;;
47772;SDS011;33534;51.028;13.716;2022-11-09T02:33:53;28.92;;;19.58;;
47772;SDS011;33534;51.028;13.716;2022-11-09T02:36:22;25.75;;;19.40;;
47772;SDS011;33534;51.028;13.716;2022-11-09T02:41:17;29.63;;;19.30;;
47772;SDS011;33534;51.028;13.716;2022-11-09T02:43:48;29.65;;;19.38;;
47772;SDS011;33534;51.028;13.716;2022-11-09T02:48:49;28.25;;;18.23;;
47772;SDS011;33534;51.028;13.716;2022-11-09T02:51:15;27.05;;;18.50;;
47772;SDS011;33534;51.028;13.716;2022-11-09T02:53:44;26.63;;;18.50;;
47772;SDS011;33534;51.028;13.716;2022-11-09T02:56:15;27.15;;;18.50;;
47772;SDS011;33534;51.028;13.716;2022-11-09T02:58:41;31.83;;;19.83;;
47772;SDS011;33534;51.028;13.716;2022-11-09T03:01:10;27.95;;;19.92;;
47772;SDS011;33534;51.028;13.716;2022-11-09T03:03:38;29.75;;;19.48;;
47772;SDS011;33534;51.028;13.716;2022-11-09T03:06:05;26.52;;;18.58;;
47772;SDS011;33534;51.028;13.716;2022-11-09T03:08:31;24.45;;;18.08;;
47772;SDS011;33534;51.028;13.716;2022-11-09T03:11:00;29.60;;;20.20;;
47772;SDS011;33534;51.028;13.716;2022-11-09T03:13:27;28.02;;;18.75;;
47772;SDS011;33534;51.028;13.716;2022-11-09T03:15:53;28.52;;;19.83;;
47772;SDS011;33534;51.028;13.716;2022-11-09T03:18:27;29.58;;;19.25;;
47772;SDS011;33534;51.028;13.716;2022-11-09T03:20:55;26.77;;;18.98;;
47772;SDS011;33534;51.028;13.716;2022-11-09T03:23:25;30.30;;;20.25;;
47772;SDS011;33534;51.028;13.716;2022-11-09T03:25:57;30.60;;;19.52;;
47772;SDS011;33534;51.028;13.716;2022-11-09T03:28:28;31.73;;;20.75;;
47772;SDS011;33534;51.028;13.716;2022-11-09T03:30:54;35.70;;;20.83;;
47772;SDS011;33534;51.028;13.716;2022-11-09T03:33:26;29.52;;;20.17;;
47772;SDS011;33534;51.028;13.716;2022-11-09T03:35:55;28.00;;;19.13;;
47772;SDS011;33534;51.028;13.716;2022-11-09T03:38:21;26.35;;;19.02;;
47772;SDS011;33534;51.028;13.716;2022-11-09T03:40:49;26.45;;;18.67;;
47772;SDS011;33534;51.028;13.716;2022-11-09T03:43:15;27.17;;;17.85;;
47772;SDS011;33534;51.028;13.716;2022-11-09T03:45:41;26.08;;;17.63;;
47772;SDS011;33534;51.028;13.716;2022-11-09T03:48:07;26.98;;;19.08;;
47772;SDS011;33534;51.028;13.716;2022-11-09T03:50:34;26.45;;;18.92;;
47772;SDS011;33534;51.028;13.716;2022-11-09T03:53:04;27.93;;;17.70;;
47772;SDS011;33534;51.028;13.716;2022-11-09T03:55:30;29.25;;;18.75;;
47772;SDS011;33534;51.028;13.716;2022-11-09T03:57:59;28.48;;;18.90;;
47772;SDS011;33534;51.028;13.716;2022-11-09T04:00:26;28.85;;;18.88;;
47772;SDS011;33534;51.028;13.716;2022-11-09T04:02:52;26.23;;;18.95;;
47772;SDS011;33534;51.028;13.716;2022-11-09T04:05:19;28.42;;;19.02;;
47772;SDS011;33534;51.028;13.716;2022-11-09T04:07:48;26.42;;;19.00;;
47772;SDS011;33534;51.028;13.716;2022-11-09T04:10:15;26.58;;;18.42;;
47772;SDS011;33534;51.028;13.716;2022-11-09T04:12:43;27.38;;;18.58;;
47772;SDS011;33534;51.028;13.716;2022-11-09T04:15:12;29.17;;;19.15;;
47772;SDS011;33534;51.028;13.716;2022-11-09T04:17:38;29.60;;;18.77;;
47772;SDS011;33534;51.028;13.716;2022-11-09T04:20:05;28.63;;;18.70;;
47772;SDS011;33534;51.028;13.716;2022-11-09T04:22:31;26.73;;;19.30;;
47772;SDS011;33534;51.028;13.716;2022-11-09T04:25:02;28.15;;;18.70;;
47772;SDS011;33534;51.028;13.716;2022-11-09T04:27:29;26.08;;;17.70;;
47772;SDS011;33534;51.028;13.716;2022-11-09T04:29:55;28.42;;;18.52;;
47772;SDS011;33534;51.028;13.716;2022-11-09T04:32:23;23.63;;;16.95;;
47772;SDS011;33534;51.028;13.716;2022-11-09T04:34:49;25.98;;;18.00;;
47772;SDS011;33534;51.028;13.716;2022-11-09T04:37:15;26.35;;;17.85;;
47772;SDS011;33534;51.028;13.716;2022-11-09T04:39:41;27.23;;;17.38;;
47772;SDS011;33534;51.028;13.716;2022-11-09T04:42:09;25.42;;;16.75;;
47772;SDS011;33534;51.028;13.716;2022-11-09T04:44:36;24.52;;;17.17;;
47772;SDS011;33534;51.028;13.716;2022-11-09T04:47:02;27.05;;;18.55;;
47772;SDS011;33534;51.028;13.716;2022-11-09T04:49:28;25.02;;;16.92;;
47772;SDS011;33534;51.028;13.716;2022-11-09T04:51:54;25.60;;;16.77;;
47772;SDS011;33534;51.028;13.716;2022-11-09T04:54:20;22.98;;;16.08;;
47772;SDS011;33534;51.028;13.716;2022-11-09T04:56:46;24.33;;;17.45;;
47772;SDS011;33534;51.028;13.716;2022-11-09T04:59:12;26.60;;;17.80;;
47772;SDS011;33534;51.028;13.716;2022-11-09T05:01:41;23.48;;;16.58;;
47772;SDS011;33534;51.028;13.716;2022-11-09T05:04:07;24.20;;;15.57;;
47772;SDS011;33534;51.028;13.716;2022-11-09T05:06:32;24.67;;;16.63;;
47772;SDS011;33534;51.028;13.716;2022-11-09T05:09:01;22.60;;;16.55;;
47772;SDS011;33534;51.028;13.716;2022-11-09T05:11:33;25.58;;;16.85;;
47772;SDS011;33534;51.028;13.716;2022-11-09T05:13:59;27.80;;;17.75;;
47772;SDS011;33534;51.028;13.716;2022-11-09T05:16:33;25.02;;;16.65;;
47772;SDS011;33534;51.028;13.716;2022-11-09T05:18:59;24.67;;;15.77;;
47772;SDS011;33534;51.028;13.716;2022-11-09T05:21:49;23.73;;;16.08;;
47772;SDS011;33534;51.028;13.716;2022-11-09T05:27:49;22.38;;;15.93;;
47772;SDS011;33534;51.028;13.716;2022-11-09T05:30:21;25.83;;;16.05;;
47772;SDS011;33534;51.028;13.716;2022-11-09T05:33:06;25.35;;;16.15;;
47772;SDS011;33534;51.028;13.716;2022-11-09T05:35:32;18.92;;;15.07;;
47772;SDS011;33534;51.028;13.716;2022-11-09T05:37:58;24.65;;;15.88;;
47772;SDS011;33534;51.028;13.716;2022-11-09T05:40:24;24.02;;;16.55;;
47772;SDS011;33534;51.028;13.716;2022-11-09T05:42:52;21.13;;;15.30;;
47772;SDS011;33534;51.028;13.716;2022-11-09T05:45:20;23.20;;;16.23;;
47772;SDS011;33534;51.028;13.716;2022-11-09T05:47:46;26.60;;;15.90;;
47772;SDS011;33534;51.028;13.716;2022-11-09T05:50:14;23.17;;;16.30;;
47772;SDS011;33534;51.028;13.716;2022-11-09T05:52:41;21.30;;;14.88;;
47772;SDS011;33534;51.028;13.716;2022-11-09T05:55:07;21.90;;;15.23;;
47772;SDS011;33534;51.028;13.716;2022-11-09T05:57:33;24.52;;;16.83;;
47772;SDS011;33534;51.028;13.716;2022-11-09T06:00:03;24.20;;;16.20;;
47772;SDS011;33534;51.028;13.716;2022-11-09T06:02:30;24.77;;;16.83;;
47772;SDS011;33534;51.028;13.716;2022-11-09T06:04:56;22.23;;;15.68;;
47772;SDS011;33534;51.028;13.716;2022-11-09T06:07:23;25.20;;;16.85;;
47772;SDS011;33534;51.028;13.716;2022-11-09T06:09:49;25.77;;;16.17;;
47772;SDS011;33534;51.028;13.716;2022-11-09T06:12:15;22.65;;;16.58;;
47772;SDS011;33534;51.028;13.716;2022-11-09T06:14:41;23.60;;;15.77;;
47772;SDS011;33534;51.028;13.716;2022-11-09T06:17:07;24.48;;;16.88;;
47772;SDS011;33534;51.028;13.716;2022-11-09T06:19:33;28.35;;;16.73;;
47772;SDS011;33534;51.028;13.716;2022-11-09T06:21:59;23.58;;;16.13;;
47772;SDS011;33534;51.028;13.716;2022-11-09T06:24:30;22.30;;;15.40;;
47772;SDS011;33534;51.028;13.716;2022-11-09T06:26:56;24.23;;;16.83;;
47772;SDS011;33534;51.028;13.716;2022-11-09T06:29:25;21.85;;;16.30;;
47772;SDS011;33534;51.028;13.716;2022-11-09T06:31:51;24.55;;;16.83;;
47772;SDS011;33534;51.028;13.716;2022-11-09T06:34:17;22.70;;;16.70;;
47772;SDS011;33534;51.028;13.716;2022-11-09T06:36:43;25.15;;;16.75;;
47772;SDS011;33534;51.028;13.716;2022-11-09T06:39:17;25.73;;;17.27;;
47772;SDS011;33534;51.028;13.716;2022-11-09T06:41:43;24.10;;;16.40;;
47772;SDS011;33534;51.028;13.716;2022-11-09T06:44:09;24.52;;;16.90;;
47772;SDS011;33534;51.028;13.716;2022-11-09T06:46:38;25.95;;;18.02;;
47772;SDS011;33534;51.028;13.716;2022-11-09T06:49:04;22.80;;;16.20;;
47772;SDS011;33534;51.028;13.716;2022-11-09T06:51:33;25.50;;;16.25;;
47772;SDS011;33534;51.028;13.716;2022-11-09T06:53:59;26.35;;;16.25;;
47772;SDS011;33534;51.028;13.716;2022-11-09T06:56:25;22.90;;;15.88;;
47772;SDS011;33534;51.028;13.716;2022-11-09T06:58:51;35.33;;;16.30;;
47772;SDS011;33534;51.028;13.716;2022-11-09T07:01:18;21.75;;;15.93;;
47772;SDS011;33534;51.028;13.716;2022-11-09T07:03:47;23.05;;;16.60;;
47772;SDS011;33534;51.028;13.716;2022-11-09T07:06:13;22.67;;;16.00;;
47772;SDS011;33534;51.028;13.716;2022-11-09T07:08:39;24.30;;;15.82;;
47772;SDS011;33534;51.028;13.716;2022-11-09T07:11:06;25.55;;;17.88;;
47772;SDS011;33534;51.028;13.716;2022-11-09T07:13:32;22.75;;;15.35;;
47772;SDS011;33534;51.028;13.716;2022-11-09T07:15:59;21.23;;;15.88;;
47772;SDS011;33534;51.028;13.716;2022-11-09T07:18:25;24.75;;;14.95;;
47772;SDS011;33534;51.028;13.716;2022-11-09T07:20:51;22.02;;;13.95;;
47772;SDS011;33534;51.028;13.716;2022-11-09T07:23:17;22.13;;;14.57;;
47772;SDS011;33534;51.028;13.716;2022-11-09T07:25:43;20.25;;;14.02;;
47772;SDS011;33534;51.028;13.716;2022-11-09T07:28:10;20.60;;;14.20;;
47772;SDS011;33534;51.028;13.716;2022-11-09T07:30:36;21.05;;;14.07;;
47772;SDS011;33534;51.028;13.716;2022-11-09T07:33:03;19.35;;;13.68;;
47772;SDS011;33534;51.028;13.716;2022-11-09T07:35:29;17.50;;;12.55;;
47772;SDS011;33534;51.028;13.716;2022-11-09T07:37:58;21.83;;;11.57;;
47772;SDS011;33534;51.028;13.716;2022-11-09T07:40:25;16.55;;;11.70;;
47772;SDS011;33534;51.028;13.716;2022-11-09T07:43:00;15.63;;;11.23;;
47772;SDS011;33534;51.028;13.716;2022-11-09T07:45:30;16.70;;;10.70;;
47772;SDS011;33534;51.028;13.716;2022-11-09T07:48:11;27.20;;;11.73;;
47772;SDS011;33534;51.028;13.716;2022-11-09T07:50:43;13.82;;;10.50;;
47772;SDS011;33534;51.028;13.716;2022-11-09T07:56:38;15.98;;;10.55;;
47772;SDS011;33534;51.028;13.716;2022-11-09T08:28:15;24.20;;;15.10;;
47772;SDS011;33534;51.028;13.716;2022-11-09T08:30:53;20.65;;;14.98;;
47772;SDS011;33534;51.028;13.716;2022-11-09T08:33:28;21.25;;;13.95;;
47772;SDS011;33534;51.028;13.716;2022-11-09T08:41:27;23.75;;;15.05;;
47772;SDS011;33534;51.028;13.716;2022-11-09T08:47:58;22.10;;;15.05;;
47772;SDS011;33534;51.028;13.716;2022-11-09T08:50:23;19.45;;;14.50;;
47772;SDS011;33534;51.028;13.716;2022-11-09T08:53:30;24.13;;;14.60;;
47772;SDS011;33534;51.028;13.716;2022-11-09T09:08:12;18.92;;;12.82;;
47772;SDS011;33534;51.028;13.716;2022-11-09T09:10:41;17.90;;;12.75;;
47772;SDS011;33534;51.028;13.716;2022-11-09T09:13:08;16.38;;;12.23;;
47772;SDS011;33534;51.028;13.716;2022-11-09T09:15:36;15.90;;;11.95;;
47772;SDS011;33534;51.028;13.716;2022-11-09T09:18:04;19.95;;;12.05;;
47772;SDS011;33534;51.028;13.716;2022-11-09T09:20:38;16.20;;;12.02;;
47772;SDS011;33534;51.028;13.716;2022-11-09T09:23:13;14.93;;;11.73;;
47772;SDS011;33534;51.028;13.716;2022-11-09T09:25:40;14.70;;;11.45;;
47772;SDS011;33534;51.028;13.716;2022-11-09T09:28:35;16.75;;;11.95;;
47772;SDS011;33534;51.028;13.716;2022-11-09T09:31:02;17.30;;;12.88;;
47772;SDS011;33534;51.028;13.716;2022-11-09T09:33:35;17.17;;;13.50;;
47772;SDS011;33534;51.028;13.716;2022-11-09T09:36:15;19.00;;;13.23;;
47772;SDS011;33534;51.028;13.716;2022-11-09T09:38:53;18.63;;;14.15;;
47772;SDS011;33534;51.028;13.716;2022-11-09T09:43:52;17.45;;;13.90;;
47772;SDS011;33534;51.028;13.716;2022-11-09T09:46:39;16.75;;;12.27;;
47772;SDS011;33534;51.028;13.716;2022-11-09T09:54:30;17.73;;;11.55;;
47772;SDS011;33534;51.028;13.716;2022-11-09T09:57:03;16.77;;;12.02;;
47772;SDS011;33534;51.028;13.716;2022-11-09T09:59:42;15.90;;;11.93;;
47772;SDS011;33534;51.028;13.716;2022-11-09T10:02:23;16.15;;;12.05;;
47772;SDS011;33534;51.028;13.716;2022-11-09T10:05:11;15.20;;;11.95;;
47772;SDS011;33534;51.028;13.716;2022-11-09T10:18:30;16.95;;;12.05;;
47772;SDS011;33534;51.028;13.716;2022-11-09T10:21:26;20.23;;;11.90;;
47772;SDS011;33534;51.028;13.716;2022-11-09T10:24:09;17.70;;;11.55;;
47772;SDS011;33534;51.028;13.716;2022-11-09T10:36:07;16.08;;;11.05;;
47772;SDS011;33534;51.028;13.716;2022-11-09T10:42:00;14.63;;;9.65;;
47772;SDS011;33534;51.028;13.716;2022-11-09T10:44:52;13.20;;;9.73;;
47772;SDS011;33534;51.028;13.716;2022-11-09T10:47:24;15.20;;;10.35;;
47772;SDS011;33534;51.028;13.716;2022-11-09T10:50:12;11.98;;;9.50;;
47772;SDS011;33534;51.028;13.716;2022-11-09T10:52:45;13.02;;;10.18;;
47772;SDS011;33534;51.028;13.716;2022-11-09T10:55:21;13.90;;;10.40;;
47772;SDS011;33534;51.028;13.716;2022-11-09T11:00:23;16.17;;;11.60;;
47772;SDS011;33534;51.028;13.716;2022-11-09T11:02:59;15.90;;;11.68;;
47772;SDS011;33534;51.028;13.716;2022-11-09T11:05:39;13.52;;;11.30;;
47772;SDS011;33534;51.028;13.716;2022-11-09T11:08:19;13.65;;;10.95;;
47772;SDS011;33534;51.028;13.716;2022-11-09T11:10:51;15.65;;;11.25;;
47772;SDS011;33534;51.028;13.716;2022-11-09T11:13:39;13.45;;;10.85;;
47772;SDS011;33534;51.028;13.716;2022-11-09T11:16:14;14.43;;;11.30;;
47772;SDS011;33534;51.028;13.716;2022-11-09T11:18:44;17.85;;;12.70;;
47772;SDS011;33534;51.028;13.716;2022-11-09T11:27:15;12.85;;;10.70;;
47772;SDS011;33534;51.028;13.716;2022-11-09T11:29:42;14.38;;;10.93;;
47772;SDS011;33534;51.028;13.716;2022-11-09T11:32:22;15.50;;;12.75;;
47772;SDS011;33534;51.028;13.716;2022-11-09T11:34:48;15.55;;;11.50;;
47772;SDS011;33534;51.028;13.716;2022-11-09T11:59:54;14.93;;;10.65;;
47772;SDS011;33534;51.028;13.716;2022-11-09T12:16:19;14.07;;;11.10;;
47772;SDS011;33534;51.028;13.716;2022-11-09T12:21:31;14.68;;;10.52;;
47772;SDS011;33534;51.028;13.716;2022-11-09T12:24:05;16.90;;;12.18;;
47772;SDS011;33534;51.028;13.716;2022-11-09T12:27:38;13.82;;;10.27;;
47772;SDS011;33534;51.028;13.716;2022-11-09T12:32:15;11.65;;;9.77;;
47772;SDS011;33534;51.028;13.716;2022-11-09T12:34:46;15.80;;;10.43;;
47772;SDS011;33534;51.028;13.716;2022-11-09T12:37:25;14.93;;;10.75;;
47772;SDS011;33534;51.028;13.716;2022-11-09T12:39:53;17.00;;;10.75;;
47772;SDS011;33534;51.028;13.716;2022-11-09T12:47:26;15.02;;;11.63;;
47772;SDS011;33534;51.028;13.716;2022-11-09T12:49:53;16.25;;;11.02;;
47772;SDS011;33534;51.028;13.716;2022-11-09T12:52:20;15.13;;;9.55;;
47772;SDS011;33534;51.028;13.716;2022-11-09T12:54:51;13.82;;;10.75;;
47772;SDS011;33534;51.028;13.716;2022-11-09T12:57:21;14.20;;;11.77;;
47772;SDS011;33534;51.028;13.716;2022-11-09T13:02:57;14.07;;;12.13;;
47772;SDS011;33534;51.028;13.716;2022-11-09T13:05:05;14.95;;;12.15;;
47772;SDS011;33534;51.028;13.716;2022-11-09T13:10:04;18.65;;;12.85;;
47772;SDS011;33534;51.028;13.716;2022-11-09T13:12:35;18.58;;;13.43;;
47772;SDS011;33534;51.028;13.716;2022-11-09T13:15:24;16.33;;;12.52;;
47772;SDS011;33534;51.028;13.716;2022-11-09T13:23:02;17.45;;;13.10;;
47772;SDS011;33534;51.028;13.716;2022-11-09T13:30:55;17.17;;;13.95;;
47772;SDS011;33534;51.028;13.716;2022-11-09T13:33:30;18.60;;;14.00;;
47772;SDS011;33534;51.028;13.716;2022-11-09T13:35:59;20.17;;;14.98;;
47772;SDS011;33534;51.028;13.716;2022-11-09T13:38:37;22.33;;;15.52;;
47772;SDS011;33534;51.028;13.716;2022-11-09T13:44:05;21.50;;;15.48;;
47772;SDS011;33534;51.028;13.716;2022-11-09T13:46:34;20.83;;;14.85;;
47772;SDS011;33534;51.028;13.716;2022-11-09T13:49:02;18.77;;;14.77;;
47772;SDS011;33534;51.028;13.716;2022-11-09T13:51:48;20.50;;;16.17;;
47772;SDS011;33534;51.028;13.716;2022-11-09T13:56:49;18.23;;;15.38;;
47772;SDS011;33534;51.028;13.716;2022-11-09T13:59:19;18.50;;;15.63;;
47772;SDS011;33534;51.028;13.716;2022-11-09T14:04:19;23.45;;;16.73;;
47772;SDS011;33534;51.028;13.716;2022-11-09T14:06:46;22.20;;;17.60;;
47772;SDS011;33534;51.028;13.716;2022-11-09T14:09:13;23.33;;;18.83;;
47772;SDS011;33534;51.028;13.716;2022-11-09T14:11:49;21.58;;;17.25;;
47772;SDS011;33534;51.028;13.716;2022-11-09T14:22:12;22.02;;;17.38;;
47772;SDS011;33534;51.028;13.716;2022-11-09T14:24:40;24.35;;;18.48;;
47772;SDS011;33534;51.028;13.716;2022-11-09T14:29:35;25.33;;;17.92;;
47772;SDS011;33534;51.028;13.716;2022-11-09T14:34:48;28.15;;;19.48;;
47772;SDS011;33534;51.028;13.716;2022-11-09T14:37:14;29.27;;;19.50;;
47772;SDS011;33534;51.028;13.716;2022-11-09T14:39:41;23.95;;;18.00;;
47772;SDS011;33534;51.028;13.716;2022-11-09T14:42:13;26.35;;;19.58;;
47772;SDS011;33534;51.028;13.716;2022-11-09T14:44:42;27.63;;;20.30;;
47772;SDS011;33534;51.028;13.716;2022-11-09T14:47:13;31.70;;;20.65;;
47772;SDS011;33534;51.028;13.716;2022-11-09T14:52:07;25.63;;;18.92;;
47772;SDS011;33534;51.028;13.716;2022-11-09T14:54:34;29.25;;;20.83;;
47772;SDS011;33534;51.028;13.716;2022-11-09T14:57:00;27.52;;;20.45;;
47772;SDS011;33534;51.028;13.716;2022-11-09T14:59:28;26.90;;;20.50;;
47772;SDS011;33534;51.028;13.716;2022-11-09T15:01:59;31.35;;;21.58;;
47772;SDS011;33534;51.028;13.716;2022-11-09T15:04:27;30.08;;;20.75;;
47772;SDS011;33534;51.028;13.716;2022-11-09T15:06:59;30.10;;;22.75;;
47772;SDS011;33534;51.028;13.716;2022-11-09T15:09:31;30.70;;;21.55;;
47772;SDS011;33534;51.028;13.716;2022-11-09T15:11:59;35.70;;;22.75;;
47772;SDS011;33534;51.028;13.716;2022-11-09T15:14:29;31.88;;;22.73;;
47772;SDS011;33534;51.028;13.716;2022-11-09T15:17:05;33.17;;;22.70;;
47772;SDS011;33534;51.028;13.716;2022-11-09T15:19:54;30.38;;;22.63;;
47772;SDS011;33534;51.028;13.716;2022-11-09T15:22:40;32.92;;;23.15;;
47772;SDS011;33534;51.028;13.716;2022-11-09T15:25:20;33.17;;;23.30;;
47772;SDS011;33534;51.028;13.716;2022-11-09T15:27:58;35.70;;;23.02;;
47772;SDS011;33534;51.028;13.716;2022-11-09T15:30:25;32.50;;;23.25;;
47772;SDS011;33534;51.028;13.716;2022-11-09T15:32:51;32.50;;;22.63;;
47772;SDS011;33534;51.028;13.716;2022-11-09T15:35:17;31.88;;;22.77;;
47772;SDS011;33534;51.028;13.716;2022-11-09T15:37:48;29.88;;;22.58;;
47772;SDS011;33534;51.028;13.716;2022-11-09T15:40:16;29.98;;;21.38;;
47772;SDS011;33534;51.028;13.716;2022-11-09T15:42:42;32.15;;;21.92;;
47772;SDS011;33534;51.028;13.716;2022-11-09T15:45:11;31.48;;;22.10;;
47772;SDS011;33534;51.028;13.716;2022-11-09T15:47:38;31.60;;;23.60;;
47772;SDS011;33534;51.028;13.716;2022-11-09T15:50:13;32.53;;;23.52;;
47772;SDS011;33534;51.028;13.716;2022-11-09T15:52:40;33.92;;;23.50;;
47772;SDS011;33534;51.028;13.716;2022-11-09T15:55:16;34.05;;;23.90;;
47772;SDS011;33534;51.028;13.716;2022-11-09T15:57:43;35.65;;;24.00;;
47772;SDS011;33534;51.028;13.716;2022-11-09T16:00:13;34.33;;;24.23;;
47772;SDS011;33534;51.028;13.716;2022-11-09T16:02:45;31.80;;;23.75;;
47772;SDS011;33534;51.028;13.716;2022-11-09T16:05:11;33.80;;;22.88;;
47772;SDS011;33534;51.028;13.716;2022-11-09T16:07:46;38.03;;;24.17;;
47772;SDS011;33534;51.028;13.716;2022-11-09T16:10:16;32.33;;;22.67;;
47772;SDS011;33534;51.028;13.716;2022-11-09T16:12:44;30.30;;;21.75;;
47772;SDS011;33534;51.028;13.716;2022-11-09T16:15:10;32.95;;;23.05;;
47772;SDS011;33534;51.028;13.716;2022-11-09T16:17:37;35.92;;;22.85;;
47772;SDS011;33534;51.028;13.716;2022-11-09T16:20:03;35.80;;;23.58;;
47772;SDS011;33534;51.028;13.716;2022-11-09T16:22:35;31.23;;;22.83;;
47772;SDS011;33534;51.028;13.716;2022-11-09T16:25:01;32.25;;;21.88;;
47772;SDS011;33534;51.028;13.716;2022-11-09T16:27:40;33.92;;;23.20;;
47772;SDS011;33534;51.028;13.716;2022-11-09T16:30:20;30.95;;;21.25;;
47772;SDS011;33534;51.028;13.716;2022-11-09T16:32:51;36.58;;;22.65;;
47772;SDS011;33534;51.028;13.716;2022-11-09T16:35:20;32.03;;;23.13;;
47772;SDS011;33534;51.028;13.716;2022-11-09T16:40:59;33.17;;;24.13;;
47772;SDS011;33534;51.028;13.716;2022-11-09T16:43:38;32.63;;;22.77;;
47772;SDS011;33534;51.028;13.716;2022-11-09T16:46:16;35.38;;;23.38;;
47772;SDS011;33534;51.028;13.716;2022-11-09T16:49:08;33.20;;;22.25;;
47772;SDS011;33534;51.028;13.716;2022-11-09T16:51:49;35.10;;;22.13;;
47772;SDS011;33534;51.028;13.716;2022-11-09T16:54:35;31.00;;;21.73;;
47772;SDS011;33534;51.028;13.716;2022-11-09T16:57:15;31.05;;;22.00;;
47772;SDS011;33534;51.028;13.716;2022-11-09T17:06:42;29.23;;;21.55;;
47772;SDS011;33534;51.028;13.716;2022-11-09T17:08:54;30.80;;;22.20;;
47772;SDS011;33534;51.028;13.716;2022-11-09T17:11:23;32.65;;;22.48;;
47772;SDS011;33534;51.028;13.716;2022-11-09T17:17:00;29.02;;;21.33;;
47772;SDS011;33534;51.028;13.716;2022-11-09T17:19:32;31.38;;;20.42;;
47772;SDS011;33534;51.028;13.716;2022-11-09T17:21:59;28.15;;;19.88;;
47772;SDS011;33534;51.028;13.716;2022-11-09T17:24:25;25.98;;;19.83;;
47772;SDS011;33534;51.028;13.716;2022-11-09T17:26:51;27.45;;;20.73;;
47772;SDS011;33534;51.028;13.716;2022-11-09T17:29:17;28.38;;;21.67;;
47772;SDS011;33534;51.028;13.716;2022-11-09T17:41:12;25.23;;;19.42;;
47772;SDS011;33534;51.028;13.716;2022-11-09T17:43:39;27.15;;;19.85;;
47772;SDS011;33534;51.028;13.716;2022-11-09T17:46:13;31.37;;;20.47;;
47772;SDS011;33534;51.028;13.716;2022-11-09T17:48:43;30.73;;;20.73;;
47772;SDS011;33534;51.028;13.716;2022-11-09T17:51:23;23.15;;;18.33;;
47772;SDS011;33534;51.028;13.716;2022-11-09T17:53:49;27.50;;;20.90;;
47772;SDS011;33534;51.028;13.716;2022-11-09T17:56:15;25.95;;;19.55;;
47772;SDS011;33534;51.028;13.716;2022-11-09T17:58:42;28.65;;;19.05;;
47772;SDS011;33534;51.028;13.716;2022-11-09T18:01:12;26.65;;;18.83;;
47772;SDS011;33534;51.028;13.716;2022-11-09T18:03:45;29.08;;;19.05;;